createdAt,value
2023-11-01T00:03:51.575Z,4.75
2023-11-01T00:09:51.238Z,4.58
2023-11-01T00:15:50.662Z,4.54
2023-11-01T00:21:41.026Z,4.50
2023-11-01T00:27:32.646Z,4.34
2023-11-01T00:33:21.505Z,4.31
2023-11-01T00:39:23.397Z,4.30
2023-11-01T00:45:22.416Z,4.09
2023-11-01T00:51:21.431Z,4.02
2023-11-01T00:57:20.860Z,4.06
2023-11-01T01:03:12.347Z,4.10
2023-11-01T01:09:01.589Z,4.15
2023-11-01T01:14:50.359Z,4.14
2023-11-01T01:20:39.804Z,4.16
2023-11-01T01:26:28.870Z,4.11
2023-11-01T01:32:17.939Z,3.94
2023-11-01T01:42:41.951Z,3.82
2023-11-01T01:48:55.203Z,3.87
2023-11-01T01:54:44.808Z,3.92
2023-11-01T02:00:36.033Z,3.79
2023-11-01T02:06:24.916Z,3.84
2023-11-01T02:12:13.787Z,3.80
2023-11-01T02:18:03.223Z,3.75
2023-11-01T02:23:53.101Z,3.39
2023-11-01T02:29:42.731Z,3.33
2023-11-01T02:35:32.213Z,3.18
2023-11-01T02:45:55.951Z,3.11
2023-11-01T02:52:10.896Z,3.02
2023-11-01T02:58:25.768Z,3.07
2023-11-01T03:04:24.595Z,3.11
2023-11-01T03:10:23.719Z,2.98
2023-11-01T03:16:23.261Z,3.01
2023-11-01T03:22:12.634Z,2.97
2023-11-01T03:28:24.758Z,2.77
2023-11-01T03:34:25.266Z,2.79
2023-11-01T03:40:24.025Z,2.84
2023-11-01T03:46:37.431Z,2.93
2023-11-01T03:52:36.905Z,2.92
2023-11-01T03:58:26.299Z,2.94
2023-11-01T04:04:15.595Z,2.97
2023-11-01T04:10:15.237Z,2.95
2023-11-01T04:16:14.341Z,2.89
2023-11-01T04:22:12.945Z,2.96
2023-11-01T04:28:01.832Z,2.85
2023-11-01T04:33:51.706Z,2.77
2023-11-01T04:39:40.934Z,2.77
2023-11-01T04:45:43.878Z,2.68
2023-11-01T04:51:32.897Z,2.53
2023-11-01T04:57:22.290Z,2.58
2023-11-01T05:03:11.649Z,2.68
2023-11-01T05:09:01.072Z,2.57
2023-11-01T05:14:50.335Z,2.53
2023-11-01T05:20:40.640Z,2.59
2023-11-01T05:26:31.566Z,2.53
2023-11-01T05:32:30.773Z,2.56
2023-11-01T05:38:30.255Z,2.42
2023-11-01T05:48:40.770Z,2.34
2023-11-01T05:54:40.007Z,2.35
2023-11-01T06:00:40.651Z,2.45
2023-11-01T06:06:39.360Z,2.51
2023-11-01T06:12:38.171Z,2.60
2023-11-01T06:18:37.503Z,2.76
2023-11-01T06:24:26.371Z,2.93
2023-11-01T06:30:15.779Z,2.97
2023-11-01T06:36:05.051Z,3.07
2023-11-01T06:42:04.396Z,3.49
2023-11-01T06:48:16.877Z,4.00
2023-11-01T06:54:15.929Z,4.45
2023-11-01T07:00:15.357Z,4.59
2023-11-01T07:06:14.265Z,4.66
2023-11-01T07:12:03.891Z,5.38
2023-11-01T07:17:53.174Z,6.13
2023-11-01T07:23:42.713Z,6.53
2023-11-01T07:29:32.095Z,6.78
2023-11-01T07:35:22.337Z,7.12
2023-11-01T07:41:22.755Z,7.01
2023-11-01T07:51:36.179Z,7.41
2023-11-01T07:57:25.886Z,7.58
2023-11-01T08:03:25.710Z,7.64
2023-11-01T08:09:25.563Z,7.89
2023-11-01T08:15:25.187Z,7.76
2023-11-01T08:21:24.522Z,7.99
2023-11-01T08:27:37.459Z,8.55
2023-11-01T08:33:37.385Z,8.85
2023-11-01T08:39:37.029Z,8.98
2023-11-01T08:45:36.977Z,9.31
2023-11-01T08:51:50.627Z,9.50
2023-11-01T08:57:50.359Z,9.48
2023-11-01T09:03:50.218Z,9.91
2023-11-01T09:09:51.156Z,9.85
2023-11-01T09:15:52.542Z,9.88
2023-11-01T09:21:52.985Z,10.26
2023-11-01T09:27:53.436Z,10.32
2023-11-01T09:33:52.915Z,10.43
2023-11-01T09:39:53.517Z,10.83
2023-11-01T09:45:53.057Z,10.74
2023-11-01T09:52:08.554Z,10.84
2023-11-01T09:58:12.438Z,11.04
2023-11-01T10:04:12.045Z,11.50
2023-11-01T10:10:17.600Z,11.70
2023-11-01T10:16:18.630Z,11.54
2023-11-01T10:22:20.423Z,11.55
2023-11-01T10:28:21.599Z,11.90
2023-11-01T10:50:42.980Z,12.44
2023-11-01T11:16:57.573Z,12.56
2023-11-01T11:29:34.017Z,12.29
2023-11-01T11:35:27.628Z,12.14
2023-11-01T11:42:03.452Z,11.99
2023-11-01T11:51:44.529Z,11.68
2023-11-01T12:04:08.404Z,11.25
2023-11-01T12:10:10.213Z,11.16
2023-11-01T12:16:12.958Z,11.06
2023-11-01T12:22:15.318Z,10.98
2023-11-01T12:28:22.232Z,10.80
2023-11-01T12:34:21.871Z,10.86
2023-11-01T12:40:23.008Z,10.73
2023-11-01T12:46:22.556Z,10.60
2023-11-01T12:52:37.145Z,10.58
2023-11-01T12:58:39.477Z,10.47
2023-11-01T13:04:39.153Z,10.54
2023-11-01T13:10:39.519Z,10.42
2023-11-01T13:16:28.930Z,10.36
2023-11-01T13:22:20.331Z,10.16
2023-11-01T13:28:09.731Z,9.95
2023-11-01T13:33:59.114Z,9.77
2023-11-01T13:39:48.506Z,9.67
2023-11-01T13:45:38.210Z,9.47
2023-11-01T13:51:41.320Z,9.27
2023-11-01T13:57:30.709Z,9.32
2023-11-01T14:03:38.189Z,9.21
2023-11-01T14:09:27.625Z,9.15
2023-11-01T14:15:19.156Z,9.08
2023-11-01T14:21:09.498Z,9.01
2023-11-01T14:26:58.988Z,8.97
2023-11-01T14:32:49.216Z,8.80
2023-11-01T14:38:38.591Z,8.73
2023-11-01T14:44:27.757Z,8.55
2023-11-01T14:54:52.501Z,8.24
2023-11-01T15:00:52.965Z,8.05
2023-11-01T15:06:52.342Z,7.99
2023-11-01T15:12:51.803Z,7.92
2023-11-01T15:18:50.932Z,7.79
2023-11-01T15:24:51.392Z,7.72
2023-11-01T15:30:50.801Z,7.58
2023-11-01T15:36:50.558Z,7.42
2023-11-01T15:42:50.999Z,7.37
2023-11-01T15:48:50.306Z,7.29
2023-11-01T15:54:52.918Z,7.15
2023-11-01T16:00:51.827Z,7.10
2023-11-01T16:06:51.157Z,6.85
2023-11-01T16:12:50.273Z,6.88
2023-11-01T16:18:49.582Z,6.84
2023-11-01T16:24:49.330Z,6.85
2023-11-01T16:30:48.662Z,6.77
2023-11-01T16:36:47.676Z,6.73
2023-11-01T16:42:47.291Z,6.71
2023-11-01T16:48:46.627Z,6.67
2023-11-01T16:55:01.527Z,6.64
2023-11-01T17:01:13.863Z,6.54
2023-11-01T17:07:13.102Z,6.46
2023-11-01T17:13:12.388Z,6.42
2023-11-01T17:19:11.718Z,6.33
2023-11-01T17:25:29.483Z,6.32
2023-11-01T17:31:43.471Z,6.21
2023-11-01T17:37:50.191Z,6.19
2023-11-01T17:43:53.247Z,6.18
2023-11-01T17:49:53.532Z,6.10
2023-11-01T17:55:53.027Z,6.03
2023-11-01T18:01:53.086Z,6.06
2023-11-01T18:07:55.997Z,5.94
2023-11-01T18:13:55.095Z,5.92
2023-11-01T18:19:54.112Z,5.77
2023-11-01T18:26:11.967Z,5.70
2023-11-01T18:32:13.752Z,5.78
2023-11-01T18:38:17.684Z,5.74
2023-11-01T18:44:25.404Z,5.65
2023-11-01T18:53:55.992Z,5.55
2023-11-01T18:59:45.226Z,5.52
2023-11-01T19:05:34.757Z,5.41
2023-11-01T19:11:24.157Z,5.39
2023-11-01T19:17:13.264Z,5.35
2023-11-01T19:23:02.629Z,5.25
2023-11-01T19:28:53.360Z,5.18
2023-11-01T19:34:42.136Z,5.08
2023-11-01T19:40:31.220Z,5.01
2023-11-01T19:46:20.618Z,5.01
2023-11-01T19:56:08.827Z,5.05
2023-11-01T20:02:10.939Z,5.08
2023-11-01T20:08:10.315Z,5.06
2023-11-01T20:14:10.270Z,5.13
2023-11-01T20:20:11.732Z,5.17
2023-11-01T20:26:11.075Z,5.21
2023-11-01T20:32:10.091Z,5.21
2023-11-01T20:38:09.291Z,5.16
2023-11-01T20:44:07.800Z,5.18
2023-11-01T20:50:08.160Z,5.12
2023-11-01T20:56:21.400Z,5.04
2023-11-01T21:02:20.608Z,5.03
2023-11-01T21:08:19.850Z,5.02
2023-11-01T21:14:18.863Z,4.98
2023-11-01T21:20:17.871Z,4.94
2023-11-01T21:26:17.205Z,4.79
2023-11-01T21:32:16.212Z,4.83
2023-11-01T21:38:15.435Z,4.79
2023-11-01T21:44:14.963Z,4.84
2023-11-01T21:50:17.376Z,4.86
2023-11-01T21:56:32.967Z,4.90
2023-11-01T22:02:48.338Z,4.82
2023-11-01T22:09:00.942Z,4.84
2023-11-01T22:15:00.071Z,4.85
2023-11-01T22:20:59.282Z,4.77
2023-11-01T22:26:59.228Z,4.81
2023-11-01T22:32:48.441Z,4.96
2023-11-01T22:38:39.706Z,5.08
2023-11-01T22:44:28.717Z,5.11
2023-11-01T22:50:18.809Z,5.13
2023-11-01T22:56:20.882Z,5.12
2023-11-01T23:02:10.571Z,4.98
2023-11-01T23:08:03.116Z,4.96
2023-11-01T23:13:52.328Z,4.98
2023-11-01T23:19:52.376Z,4.80
2023-11-01T23:25:51.497Z,4.76
2023-11-01T23:31:51.136Z,4.62
2023-11-01T23:37:39.908Z,4.65
2023-11-01T23:43:35.030Z,4.59
2023-11-01T23:49:50.125Z,4.49
